Alkin Kalkavan — TCOL6 — position and weather

sailwx.info

Track history (hours):
 
Tides and Currents Weather Stations Pressure Air Temp Water Temp Dewpoint Dewpoint Depression Visibility Wind Speed Wind Dir Waves Ship Positions

Alkin Kalkavan

Last reported at 2015-Sep-04 05:33 UTC. Time now 2015-Sep-04 16:35 UTC.
Position N 34°35' E 033°32'.

Length 150 m; draft 7.7 m.

Type: Ship (hazmat cat A). MMSI: 271000905.

Date/timePositionNaut miles runAvg speedWind from/ knotsBaromVisibWave heightAir tempDewpointWater temp
2015-Sep-04 05:33N 34°35' E 033°32'1616.0
2015-Sep-04 04:33N 34°27' E 033°16'1514.8
2015-Sep-04 03:33N 34°25' E 032°58'1615.5
2015-Sep-04 02:33N 34°28' E 032°39'13015.8
2015-Sep-03 18:20N 35°33' E 030°21'17114.5
2015-Sep-03 06:33N 36°56' E 027°16'  
2015-Aug-28 14:27N 37°49' E 026°28'1914.5
2015-Aug-28 13:10N 37°33' E 026°39'914.2
2015-Aug-28 12:32N 37°26' E 026°47'1414.2
2015-Aug-28 11:33N 37°14' E 026°56'1914.2
2015-Aug-28 10:12N 36°59' E 027°10'3512.9
2015-Aug-28 07:32N 36°33' E 027°39'1515.5
2015-Aug-28 06:33N 36°29' E 027°57'7614.7
2015-Aug-28 01:22N 35°54' E 029°21'1615.8
2015-Aug-28 00:19N 35°43' E 029°35'1216.0
2015-Aug-27 23:33N 35°34' E 029°46'1615.9
2015-Aug-27 22:33N 35°22' E 029°60'7915.3
2015-Aug-27 17:25N 34°27' E 031°07'1315.4
2015-Aug-27 16:33N 34°17' E 031°18'1515.2
2015-Aug-27 15:33N 34°06' E 031°31'1514.9
2015-Aug-27 14:33N 33°56' E 031°44'1515.0
2015-Aug-27 13:33N 33°45' E 031°57'10915.5
2015-Aug-27 06:32N 32°28' E 033°28'54 1.5
2015-Aug-25 18:08N 32°59' E 034°20'  
Track history (hours):
 
Tides and Currents Weather Stations Pressure Air Temp Water Temp Dewpoint Dewpoint Depression Visibility Wind Speed Wind Dir Waves Ship Positions

Alkin Kalkavan

Last reported at 2015-Sep-04 05:33 UTC. Time now 2015-Sep-04 16:35 UTC.
Position N 34°35' E 033°32'.

Length 150 m; draft 7.7 m.

Type: Ship (hazmat cat A). MMSI: 271000905.

Date/timePositionNaut miles runAvg speedWind from/ knotsBaromVisibWave heightAir tempDewpointWater temp
2015-Sep-04 05:33N 34°35' E 033°32'1616.0
2015-Sep-04 04:33N 34°27' E 033°16'1514.8
2015-Sep-04 03:33N 34°25' E 032°58'1615.5
2015-Sep-04 02:33N 34°28' E 032°39'13015.8
2015-Sep-03 18:20N 35°33' E 030°21'17114.5
2015-Sep-03 06:33N 36°56' E 027°16'  
2015-Aug-28 14:27N 37°49' E 026°28'1914.5
2015-Aug-28 13:10N 37°33' E 026°39'914.2
2015-Aug-28 12:32N 37°26' E 026°47'1414.2
2015-Aug-28 11:33N 37°14' E 026°56'1914.2
2015-Aug-28 10:12N 36°59' E 027°10'3512.9
2015-Aug-28 07:32N 36°33' E 027°39'1515.5
2015-Aug-28 06:33N 36°29' E 027°57'7614.7
2015-Aug-28 01:22N 35°54' E 029°21'1615.8
2015-Aug-28 00:19N 35°43' E 029°35'1216.0
2015-Aug-27 23:33N 35°34' E 029°46'1615.9
2015-Aug-27 22:33N 35°22' E 029°60'7915.3
2015-Aug-27 17:25N 34°27' E 031°07'1315.4
2015-Aug-27 16:33N 34°17' E 031°18'1515.2
2015-Aug-27 15:33N 34°06' E 031°31'1514.9
2015-Aug-27 14:33N 33°56' E 031°44'1515.0
2015-Aug-27 13:33N 33°45' E 031°57'10915.5
2015-Aug-27 06:32N 32°28' E 033°28'54 1.5
2015-Aug-25 18:08N 32°59' E 034°20'  

Dump ship's entire track history